Time;durP1;ratioP1;P1;durP2;ratioP2;P2;SDS_P1;SDS_P2;PMS_P1;PMS_P2;Temp;Humidity;BMP_temperature;BMP_pressure;BME280_temperature;BME280_humidity;BME280_pressure;Samples;Min_cycle;Max_cycle;Signal;HPM_P1;HPM_P2
2022/09/07 00:00:38;;;;;;;3.10;2.70;;;18.90;99.90;;;;;;4986328;28;20289;-52
2022/09/07 00:03:05;;;;;;;3.70;3.10;;;18.80;99.90;;;;;;4984715;28;20602;-52
2022/09/07 00:05:33;;;;;;;7.03;4.20;;;18.70;99.90;;;;;;4987596;28;20213;-52
2022/09/07 00:07:59;;;;;;;6.97;4.70;;;18.60;99.90;;;;;;4980918;28;20237;-53
2022/09/07 00:10:27;;;;;;;6.77;5.00;;;18.70;99.90;;;;;;4979332;28;20250;-52
2022/09/07 00:12:54;;;;;;;6.97;5.13;;;18.50;99.90;;;;;;4999815;28;20220;-52
2022/09/07 00:15:21;;;;;;;7.10;5.47;;;18.50;99.90;;;;;;4984242;28;20915;-52
2022/09/07 00:17:48;;;;;;;7.33;4.73;;;18.60;99.90;;;;;;4988775;28;20204;-52
2022/09/07 00:20:15;;;;;;;7.73;5.20;;;18.50;99.90;;;;;;4980193;28;20343;-53
2022/09/07 00:22:42;;;;;;;9.03;5.10;;;18.40;99.90;;;;;;4985649;28;20588;-52
2022/09/07 00:25:09;;;;;;;6.40;4.87;;;18.00;99.90;;;;;;4985415;28;20616;-52
2022/09/07 00:27:36;;;;;;;9.70;5.00;;;17.70;99.90;;;;;;4988283;28;20197;-52
2022/09/07 00:30:04;;;;;;;7.67;4.90;;;17.90;99.90;;;;;;4989638;28;20212;-52
2022/09/07 00:32:32;;;;;;;9.53;5.00;;;17.80;99.90;;;;;;4981928;28;20298;-51
2022/09/07 00:34:58;;;;;;;6.57;4.27;;;17.80;99.90;;;;;;4986070;28;20294;-52
2022/09/07 00:37:25;;;;;;;6.23;4.10;;;17.80;99.90;;;;;;4984576;28;20290;-53
2022/09/07 00:39:52;;;;;;;6.70;4.53;;;17.90;99.90;;;;;;4986470;28;20298;-53
2022/09/07 00:42:20;;;;;;;5.80;4.67;;;17.90;99.90;;;;;;4982985;28;20295;-53
2022/09/07 00:45:19;;;;;;;5.33;3.70;;;18.00;99.90;;;;;;4988375;28;20303;-53
2022/09/07 00:48:16;;;;;;;5.87;4.10;;;17.90;99.90;;;;;;4986424;28;20200;-53
2022/09/07 00:50:49;;;;;;;5.70;3.80;;;17.90;99.90;;;;;;4997801;28;20216;-53
2022/09/07 00:53:22;;;;;;;6.07;3.97;;;17.80;99.90;;;;;;4986152;28;20200;-53
2022/09/07 00:55:51;;;;;;;4.40;3.63;;;17.90;99.90;;;;;;4982202;28;20324;-53
2022/09/07 00:58:20;;;;;;;3.97;3.20;;;18.00;99.90;;;;;;4983371;28;20200;-59
2022/09/07 01:00:49;;;;;;;4.90;3.63;;;17.80;99.90;;;;;;4992881;28;20621;-53
2022/09/07 01:03:29;;;;;;;4.27;3.47;;;17.80;99.90;;;;;;4985132;28;20209;-52
2022/09/07 01:06:20;;;;;;;5.77;3.63;;;17.90;99.90;;;;;;4984314;28;20225;-52
2022/09/07 01:08:49;;;;;;;4.97;3.90;;;17.90;99.90;;;;;;4983535;28;20209;-52
2022/09/07 01:11:19;;;;;;;6.03;3.60;;;17.90;99.90;;;;;;4986066;28;20242;-53
2022/09/07 01:13:47;;;;;;;5.43;3.67;;;17.90;99.90;;;;;;4983053;28;20226;-52
2022/09/07 01:16:20;;;;;;;4.87;4.10;;;17.80;99.90;;;;;;4979373;28;20218;-52
2022/09/07 01:18:59;;;;;;;6.00;3.57;;;17.80;99.90;;;;;;4983097;28;20217;-51
2022/09/07 01:22:00;;;;;;;3.57;3.20;;;17.70;99.90;;;;;;4982462;28;20213;-52
2022/09/07 01:24:38;;;;;;;5.07;3.30;;;17.60;99.90;;;;;;5013591;28;20599;-52
2022/09/07 01:27:41;;;;;;;5.90;3.43;;;17.60;99.90;;;;;;4987850;28;20309;-53
2022/09/07 01:30:17;;;;;;;6.27;3.33;;;17.60;99.90;;;;;;4981905;28;20298;-52
2022/09/07 01:33:33;;;;;;;3.30;3.00;;;17.60;99.90;;;;;;4984458;28;20218;-52
2022/09/07 01:36:00;;;;;;;2.93;2.60;;;17.60;99.90;;;;;;4964561;28;20206;-52
2022/09/07 01:38:37;;;;;;;4.83;2.63;;;17.60;99.90;;;;;;4983197;28;20211;-52
2022/09/07 01:41:32;;;;;;;2.97;2.40;;;17.70;99.90;;;;;;4987135;28;20207;-52
2022/09/07 01:44:18;;;;;;;4.13;2.70;;;17.80;99.90;;;;;;4981822;28;20774;-52
2022/09/07 01:46:56;;;;;;;3.00;2.37;;;17.90;99.90;;;;;;4988685;28;20236;-53
2022/09/07 01:49:33;;;;;;;2.80;2.50;;;17.80;99.90;;;;;;4984169;28;20379;-53
2022/09/07 01:52:25;;;;;;;3.47;2.20;;;17.80;99.90;;;;;;4989291;28;20247;-52
2022/09/07 01:55:04;;;;;;;2.67;2.20;;;17.70;99.90;;;;;;4940473;28;20670;-52
2022/09/07 01:57:41;;;;;;;2.40;2.10;;;17.80;99.90;;;;;;4988752;28;20208;-52
2022/09/07 02:00:13;;;;;;;4.13;2.50;;;17.70;99.90;;;;;;4988601;28;20254;-53
2022/09/07 02:02:54;;;;;;;2.83;2.10;;;17.90;99.90;;;;;;4986345;28;20219;-52
2022/09/07 02:05:30;;;;;;;2.50;2.30;;;18.00;99.90;;;;;;4986942;28;20316;-52
2022/09/07 02:08:23;;;;;;;3.00;2.10;;;18.10;99.90;;;;;;4983674;28;20244;-54
2022/09/07 02:11:04;;;;;;;3.40;2.03;;;18.10;99.90;;;;;;4986456;28;20218;-52
2022/09/07 02:13:34;;;;;;;3.50;2.40;;;18.10;99.90;;;;;;4987104;28;20220;-55
2022/09/07 02:16:15;;;;;;;2.87;1.93;;;18.20;99.90;;;;;;5002997;28;20285;-52
2022/09/07 02:18:48;;;;;;;2.97;1.97;;;18.20;99.90;;;;;;4988498;28;20196;-55
2022/09/07 02:21:20;;;;;;;3.07;2.10;;;18.20;99.90;;;;;;4989948;28;20206;-54
2022/09/07 02:23:52;;;;;;;2.67;2.40;;;18.40;99.90;;;;;;4985674;28;20209;-53
2022/09/07 02:26:22;;;;;;;3.70;2.53;;;18.50;99.90;;;;;;4983560;28;20261;-53
2022/09/07 02:28:50;;;;;;;2.30;2.10;;;18.50;99.90;;;;;;4987725;28;20284;-53
2022/09/07 02:31:17;;;;;;;3.47;2.10;;;18.50;99.90;;;;;;4981935;28;20483;-52
2022/09/07 02:33:44;;;;;;;2.77;2.13;;;18.50;99.90;;;;;;4988301;28;20218;-54
2022/09/07 02:36:13;;;;;;;5.13;2.60;;;18.50;99.90;;;;;;4989005;28;20202;-53
2022/09/07 02:38:40;;;;;;;3.50;2.27;;;18.60;99.90;;;;;;4986179;28;20224;-53
2022/09/07 02:41:28;;;;;;;5.73;3.13;;;18.40;99.90;;;;;;4986077;28;20305;-53
2022/09/07 02:43:56;;;;;;;3.70;2.90;;;18.40;99.90;;;;;;4986540;28;20221;-53
2022/09/07 02:46:34;;;;;;;3.63;2.87;;;18.50;99.90;;;;;;4987684;28;20240;-53
2022/09/07 02:49:16;;;;;;;3.00;2.63;;;18.30;99.90;;;;;;4985806;28;20197;-53
2022/09/07 02:52:06;;;;;;;4.27;2.73;;;18.40;99.90;;;;;;4989352;28;20229;-53
2022/09/07 02:54:42;;;;;;;3.57;2.90;;;18.40;99.90;;;;;;4982077;28;20233;-52
2022/09/07 02:57:29;;;;;;;4.40;3.07;;;18.40;99.90;;;;;;4989360;28;20256;-54
2022/09/07 03:00:07;;;;;;;4.27;3.33;;;18.40;99.90;;;;;;4991596;28;20213;-53
2022/09/07 03:03:11;;;;;;;3.47;3.13;;;18.40;99.90;;;;;;4989062;28;20324;-52
2022/09/07 03:06:04;;;;;;;4.00;3.53;;;18.30;99.90;;;;;;4986151;28;20357;-53
2022/09/07 03:08:36;;;;;;;2.63;2.43;;;18.20;99.90;;;;;;4993785;28;20206;-53
2022/09/07 03:11:05;;;;;;;3.10;2.60;;;18.30;99.90;;;;;;4988403;28;20292;-53
2022/09/07 03:13:33;;;;;;;3.90;3.00;;;18.40;99.90;;;;;;4989788;28;20200;-53
2022/09/07 03:15:59;;;;;;;4.47;3.20;;;18.30;99.90;;;;;;4983515;28;20211;-52
2022/09/07 03:18:27;;;;;;;4.80;3.23;;;18.40;99.90;;;;;;4988027;28;20664;-53
2022/09/07 03:20:54;;;;;;;5.47;3.40;;;18.20;99.90;;;;;;4985494;28;20536;-52
2022/09/07 03:23:21;;;;;;;4.30;3.90;;;18.20;99.90;;;;;;4982171;28;20302;-52
2022/09/07 03:25:48;;;;;;;4.57;3.13;;;18.10;99.90;;;;;;4982042;28;20255;-52
2022/09/07 03:28:16;;;;;;;3.97;3.30;;;18.20;99.90;;;;;;4984477;28;20296;-53
2022/09/07 03:30:46;;;;;;;4.67;3.30;;;18.20;99.90;;;;;;4982459;28;20201;-52
2022/09/07 03:33:16;;;;;;;4.53;3.40;;;18.20;99.90;;;;;;4985309;28;20207;-52
2022/09/07 03:35:45;;;;;;;4.47;3.50;;;18.10;99.90;;;;;;4982705;28;20920;-52
2022/09/07 03:38:12;;;;;;;4.97;4.00;;;18.30;99.90;;;;;;4985310;28;20672;-53
2022/09/07 03:40:39;;;;;;;4.23;3.83;;;18.20;99.90;;;;;;4983220;28;20207;-53
2022/09/07 03:43:05;;;;;;;4.63;4.20;;;18.10;99.90;;;;;;4985132;28;20233;-53
2022/09/07 03:45:32;;;;;;;4.00;3.60;;;18.00;99.90;;;;;;4982397;28;20225;-53
2022/09/07 03:47:59;;;;;;;4.80;3.90;;;18.10;99.90;;;;;;4984634;28;20205;-53
2022/09/07 03:50:27;;;;;;;4.27;3.87;;;18.10;99.90;;;;;;4982245;28;20234;-53
2022/09/07 03:52:54;;;;;;;5.20;3.90;;;18.10;99.90;;;;;;4981729;28;20362;-53
2022/09/07 03:55:21;;;;;;;4.27;3.80;;;18.10;99.90;;;;;;4985751;28;20234;-52
2022/09/07 03:57:48;;;;;;;4.00;3.70;;;18.10;99.90;;;;;;4986563;28;20233;-53
2022/09/07 04:00:15;;;;;;;4.67;3.70;;;18.10;99.90;;;;;;4988232;28;20291;-52
2022/09/07 04:02:42;;;;;;;5.03;3.63;;;18.10;99.90;;;;;;4982264;28;20930;-52
2022/09/07 04:05:10;;;;;;;5.80;4.17;;;18.00;99.90;;;;;;4981028;28;20214;-53
2022/09/07 04:07:37;;;;;;;4.63;4.23;;;17.90;99.90;;;;;;4981000;28;20198;-53
2022/09/07 04:10:04;;;;;;;5.07;4.53;;;18.10;99.90;;;;;;4987023;28;20279;-53
2022/09/07 04:12:31;;;;;;;7.97;4.67;;;18.10;99.90;;;;;;4984961;28;20256;-52
2022/09/07 04:14:58;;;;;;;12.80;4.83;;;17.90;99.90;;;;;;4990148;28;20256;-53
2022/09/07 04:17:24;;;;;;;6.43;4.30;;;17.60;99.90;;;;;;4985798;28;20694;-52
2022/09/07 04:19:51;;;;;;;5.40;4.30;;;17.80;99.90;;;;;;4983814;28;21113;-53
2022/09/07 04:22:18;;;;;;;5.60;4.10;;;17.90;99.90;;;;;;4982374;28;20225;-52
2022/09/07 04:24:45;;;;;;;7.50;4.30;;;18.00;99.90;;;;;;5012640;28;20240;-53
2022/09/07 04:27:12;;;;;;;5.33;4.70;;;18.00;99.90;;;;;;4986209;28;22137;-52
2022/09/07 04:29:38;;;;;;;6.53;5.40;;;18.10;99.90;;;;;;4982218;28;20559;-53
2022/09/07 04:32:05;;;;;;;6.00;4.87;;;17.90;99.90;;;;;;4979159;28;20249;-52
2022/09/07 04:34:32;;;;;;;7.97;4.83;;;17.90;99.90;;;;;;4984425;28;20651;-53
2022/09/07 04:36:59;;;;;;;5.23;4.57;;;17.90;99.90;;;;;;4984216;28;20206;-53
2022/09/07 04:39:26;;;;;;;6.03;4.47;;;17.90;99.90;;;;;;4984294;28;20214;-53
2022/09/07 04:41:53;;;;;;;5.57;4.87;;;17.80;99.90;;;;;;4985415;28;20210;-53
2022/09/07 04:44:20;;;;;;;6.23;4.57;;;17.70;99.90;;;;;;4985148;28;20384;-53
2022/09/07 04:46:47;;;;;;;6.70;5.00;;;17.80;99.90;;;;;;4984695;28;20289;-53
2022/09/07 04:49:14;;;;;;;5.30;4.80;;;17.90;99.90;;;;;;4983501;28;20329;-52
2022/09/07 04:51:43;;;;;;;5.60;4.53;;;17.80;99.90;;;;;;4988129;28;20252;-52
2022/09/07 04:54:10;;;;;;;7.33;5.10;;;17.80;99.90;;;;;;5016901;28;20245;-53
2022/09/07 04:56:37;;;;;;;7.07;5.10;;;17.80;99.90;;;;;;4980520;28;20669;-53
2022/09/07 04:59:04;;;;;;;6.67;5.17;;;17.80;99.90;;;;;;4990494;28;20257;-52
2022/09/07 05:01:31;;;;;;;6.17;5.20;;;17.70;99.90;;;;;;4992403;28;20642;-53
2022/09/07 05:04:02;;;;;;;7.70;5.17;;;17.70;99.90;;;;;;4987522;28;20204;-53
2022/09/07 05:06:29;;;;;;;5.07;4.60;;;17.60;99.90;;;;;;4982172;28;20852;-53
2022/09/07 05:08:57;;;;;;;6.73;5.00;;;17.70;99.90;;;;;;4984523;28;20201;-53
2022/09/07 05:11:25;;;;;;;10.67;5.40;;;17.60;99.90;;;;;;4980103;28;20556;-52
2022/09/07 05:14:00;;;;;;;6.20;5.30;;;17.50;99.90;;;;;;4984414;28;20206;-52
2022/09/07 05:16:27;;;;;;;6.70;5.33;;;17.20;99.90;;;;;;4984798;28;20216;-52
2022/09/07 05:19:00;;;;;;;5.47;4.97;;;17.20;99.90;;;;;;4982174;28;20254;-51
2022/09/07 05:21:30;;;;;;;5.70;5.10;;;17.20;99.90;;;;;;4977882;28;20306;-52
2022/09/07 05:23:58;;;;;;;7.43;5.50;;;17.20;99.90;;;;;;4971401;28;20362;-52
2022/09/07 05:26:27;;;;;;;5.87;5.10;;;17.40;99.90;;;;;;4983328;28;20223;-53
2022/09/07 05:28:55;;;;;;;5.17;4.47;;;17.50;99.90;;;;;;4981151;28;20726;-53
2022/09/07 05:31:41;;;;;;;7.47;5.50;;;17.50;99.90;;;;;;4981354;28;20215;-53
2022/09/07 05:34:09;;;;;;;7.50;5.97;;;17.50;99.90;;;;;;4987258;28;20203;-53
2022/09/07 05:36:56;;;;;;;7.60;6.00;;;17.60;99.90;;;;;;4983318;28;20197;-52
2022/09/07 05:39:23;;;;;;;7.03;5.30;;;17.60;99.90;;;;;;4990249;28;20244;-52
2022/09/07 05:41:50;;;;;;;6.87;5.70;;;17.60;99.90;;;;;;4973664;28;20746;-52
2022/09/07 05:44:17;;;;;;;6.23;5.63;;;17.70;99.90;;;;;;4963348;28;20283;-52
2022/09/07 05:47:04;;;;;;;6.73;5.70;;;17.70;99.90;;;;;;4992612;28;20206;-52
2022/09/07 05:49:31;;;;;;;7.60;6.23;;;17.70;99.90;;;;;;4989991;28;20251;-52
2022/09/07 05:51:58;;;;;;;7.37;6.07;;;17.80;99.90;;;;;;4988408;28;20784;-52
2022/09/07 05:54:25;;;;;;;7.83;6.40;;;17.80;99.90;;;;;;4988309;28;20239;-52
2022/09/07 05:56:51;;;;;;;8.47;7.03;;;17.70;99.90;;;;;;4623891;28;10000492;-52
2022/09/07 05:59:18;;;;;;;8.57;6.47;;;17.70;99.90;;;;;;4991652;28;20204;-52
2022/09/07 06:01:45;;;;;;;7.73;6.40;;;17.80;99.90;;;;;;4989773;28;20921;-52
2022/09/07 06:04:12;;;;;;;7.83;6.67;;;17.90;99.90;;;;;;4996947;28;20213;-51
2022/09/07 06:06:39;;;;;;;7.57;6.60;;;17.90;99.90;;;;;;4993947;28;20590;-52
2022/09/07 06:09:06;;;;;;;10.60;7.00;;;17.80;99.90;;;;;;4993449;28;20239;-54
2022/09/07 06:11:35;;;;;;;7.77;6.30;;;17.70;99.90;;;;;;4986011;28;20209;-52
2022/09/07 06:14:02;;;;;;;10.10;6.77;;;17.70;99.90;;;;;;4995862;28;20266;-52
2022/09/07 06:16:31;;;;;;;9.30;7.13;;;17.80;99.90;;;;;;4992835;28;20208;-52
2022/09/07 06:19:02;;;;;;;9.57;7.63;;;17.70;99.90;;;;;;4991089;28;20243;-52
2022/09/07 06:21:29;;;;;;;7.83;7.03;;;17.60;99.90;;;;;;4984510;28;20368;-52
2022/09/07 06:23:56;;;;;;;12.43;7.70;;;17.60;99.90;;;;;;4990536;28;20244;-52
2022/09/07 06:26:23;;;;;;;9.97;8.23;;;17.70;99.90;;;;;;4992822;28;20654;-52
2022/09/07 06:28:50;;;;;;;8.10;7.03;;;17.70;99.90;;;;;;4987077;28;20278;-50
2022/09/07 06:31:24;;;;;;;8.50;6.60;;;17.70;99.90;;;;;;4980871;28;20211;-51
2022/09/07 06:33:50;;;;;;;9.50;7.50;;;18.00;99.90;;;;;;4985903;28;20200;-52
2022/09/07 06:36:20;;;;;;;9.57;7.63;;;18.00;99.90;;;;;;4987930;28;20662;-52
2022/09/07 06:38:48;;;;;;;9.17;7.50;;;17.90;99.90;;;;;;4989420;28;20213;-58
2022/09/07 06:41:21;;;;;;;10.77;8.40;;;18.10;99.90;;;;;;4994480;28;20746;-59
2022/09/07 06:44:08;;;;;;;11.13;9.00;;;18.00;99.90;;;;;;4990588;28;20212;-59
2022/09/07 06:46:35;;;;;;;10.67;9.23;;;17.90;99.90;;;;;;4988842;28;20250;-58
2022/09/07 06:49:25;;;;;;;10.93;9.27;;;17.80;99.90;;;;;;4991547;28;20209;-52
2022/09/07 06:51:52;;;;;;;14.37;9.47;;;17.70;99.90;;;;;;4982006;28;20674;-52
2022/09/07 06:54:19;;;;;;;14.10;11.67;;;17.80;99.90;;;;;;4988746;28;20250;-52
2022/09/07 06:57:07;;;;;;;15.63;11.27;;;18.00;99.90;;;;;;4993987;28;20860;-52
2022/09/07 06:59:36;;;;;;;15.57;11.13;;;17.90;99.90;;;;;;4995087;28;20204;-52
2022/09/07 07:02:04;;;;;;;10.70;8.73;;;17.90;99.90;;;;;;4983121;28;20231;-51
2022/09/07 07:04:31;;;;;;;13.93;10.90;;;18.10;99.90;;;;;;4991236;28;20209;-52
2022/09/07 07:07:08;;;;;;;12.17;9.87;;;18.60;99.90;;;;;;4984885;28;20212;-51
2022/09/07 07:09:35;;;;;;;12.13;10.17;;;18.90;99.90;;;;;;4990595;28;20643;-51
2022/09/07 07:12:02;;;;;;;20.87;14.57;;;19.10;99.90;;;;;;4990169;28;20680;-52
2022/09/07 07:14:29;;;;;;;16.47;13.87;;;18.50;99.90;;;;;;4983410;28;20263;-51
2022/09/07 07:17:01;;;;;;;20.33;14.47;;;18.50;99.90;;;;;;4987012;28;20244;-52
2022/09/07 07:19:28;;;;;;;18.17;15.43;;;18.40;99.90;;;;;;4992964;28;20269;-52
2022/09/07 07:21:55;;;;;;;18.20;14.80;;;18.30;99.90;;;;;;4996645;28;20232;-52
2022/09/07 07:24:42;;;;;;;20.40;15.57;;;18.30;99.90;;;;;;4993298;28;20585;-52
2022/09/07 07:27:09;;;;;;;20.73;16.27;;;18.20;99.90;;;;;;4991130;28;20203;-51
2022/09/07 07:29:35;;;;;;;23.77;16.87;;;18.20;99.90;;;;;;4994211;28;20250;-52
2022/09/07 07:32:03;;;;;;;21.00;17.33;;;18.10;99.90;;;;;;4996141;28;20243;-52
2022/09/07 07:37:33;;;;;;;22.40;16.97;;;18.00;99.90;;;;;;4991312;28;20226;-52
2022/09/07 07:39:59;;;;;;;21.17;16.37;;;18.10;99.90;;;;;;4991646;28;20204;-55
2022/09/07 07:42:46;;;;;;;20.40;17.10;;;18.10;99.90;;;;;;4992315;28;20292;-54
2022/09/07 07:45:13;;;;;;;22.47;17.67;;;18.00;99.90;;;;;;4998049;28;20220;-54
2022/09/07 07:48:00;;;;;;;21.00;17.60;;;18.10;99.90;;;;;;4990877;28;20206;-54
2022/09/07 07:50:27;;;;;;;22.93;18.17;;;18.00;99.90;;;;;;4987469;28;20610;-53
2022/09/07 07:52:58;;;;;;;23.47;19.00;;;18.10;99.90;;;;;;4991858;28;20501;-54
2022/09/07 07:55:45;;;;;;;22.20;17.33;;;18.20;99.90;;;;;;4995153;28;20284;-53
2022/09/07 07:58:12;;;;;;;28.67;20.10;;;18.20;99.90;;;;;;4993067;28;20661;-53
2022/09/07 08:00:39;;;;;;;27.87;19.77;;;18.10;99.90;;;;;;4995540;28;20205;-53
2022/09/07 08:03:24;;;;;;;28.43;20.67;;;18.10;99.90;;;;;;4993565;28;20214;-53
2022/09/07 08:05:52;;;;;;;21.53;18.70;;;18.20;99.90;;;;;;5001041;28;20297;-53
2022/09/07 08:08:19;;;;;;;23.97;19.63;;;18.20;99.90;;;;;;4996109;28;20199;-53
2022/09/07 08:10:46;;;;;;;23.47;18.93;;;18.20;99.90;;;;;;4996771;28;20199;-53
2022/09/07 08:13:14;;;;;;;27.03;20.90;;;18.30;99.90;;;;;;4993227;28;20194;-54
2022/09/07 08:15:45;;;;;;;24.90;18.87;;;18.50;99.90;;;;;;4998755;28;20206;-54
2022/09/07 08:18:14;;;;;;;24.03;20.00;;;18.50;99.90;;;;;;4993232;28;20201;-54
2022/09/07 08:20:41;;;;;;;22.57;18.70;;;18.80;99.90;;;;;;4989972;28;20202;-52
2022/09/07 08:23:09;;;;;;;25.30;19.23;;;18.80;99.90;;;;;;4996450;28;20213;-53
2022/09/07 08:25:35;;;;;;;23.57;18.87;;;19.00;99.90;;;;;;4993481;28;20682;-53
2022/09/07 08:28:02;;;;;;;24.47;19.47;;;19.00;99.90;;;;;;4995763;28;20202;-53
2022/09/07 08:30:29;;;;;;;22.87;19.43;;;19.10;99.90;;;;;;4993507;28;20316;-53
2022/09/07 08:32:56;;;;;;;26.03;18.73;;;19.30;99.90;;;;;;4996910;28;20280;-53
2022/09/07 08:35:23;;;;;;;20.27;17.00;;;19.50;99.90;;;;;;4999454;28;20288;-53
2022/09/07 08:37:50;;;;;;;19.23;17.00;;;19.50;99.90;;;;;;4999231;28;20241;-53
2022/09/07 08:40:17;;;;;;;18.03;15.90;;;19.70;99.90;;;;;;4999981;28;20202;-54
2022/09/07 08:43:19;;;;;;;18.03;15.37;;;20.00;99.90;;;;;;4997900;28;20238;-54
2022/09/07 08:45:50;;;;;;;18.17;15.83;;;20.10;99.90;;;;;;5027599;28;20236;-53
2022/09/07 08:48:20;;;;;;;19.10;16.00;;;20.00;99.90;;;;;;4998747;28;20232;-53
2022/09/07 08:51:15;;;;;;;16.57;14.33;;;20.10;99.90;;;;;;5000058;28;20206;-54
2022/09/07 08:53:48;;;;;;;16.63;14.13;;;20.40;99.90;;;;;;4999232;28;20202;-54
2022/09/07 08:56:36;;;;;;;15.37;13.77;;;20.40;1.00;;;;;;4995999;28;20205;-53
2022/09/07 08:59:30;;;;;;;15.20;12.73;;;20.40;25.90;;;;;;4999411;28;20275;-52
2022/09/07 09:01:57;;;;;;;14.40;11.90;;;20.80;1.00;;;;;;4995243;28;20320;-55
2022/09/07 09:04:44;;;;;;;13.23;10.93;;;20.80;1.00;;;;;;4999199;28;20219;-53
2022/09/07 09:07:46;;;;;;;12.70;11.40;;;21.10;1.00;;;;;;4997486;28;20220;-53
2022/09/07 09:10:19;;;;;;;11.53;10.23;;;21.20;1.00;;;;;;4992957;28;20209;-53
2022/09/07 09:13:00;;;;;;;14.07;10.17;;;21.20;99.90;;;;;;4989433;28;20231;-53
2022/09/07 09:15:57;;;;;;;12.03;10.40;;;21.40;1.00;;;;;;4996188;28;20228;-53
2022/09/07 09:19:09;;;;;;;12.30;10.67;;;21.50;93.00;;;;;;4998182;28;20654;-53
2022/09/07 09:21:36;;;;;;;12.20;10.47;;;21.30;1.00;;;;;;4974172;28;20206;-54
2022/09/07 09:24:19;;;;;;;13.27;10.93;;;21.20;1.00;;;;;;4990610;28;20611;-53
2022/09/07 09:26:52;;;;;;;9.97;8.67;;;21.70;1.00;;;;;;4964121;28;20558;-53
2022/09/07 09:29:21;;;;;;;9.93;8.83;;;21.80;1.00;;;;;;4992145;28;20202;-52
2022/09/07 09:31:48;;;;;;;11.87;8.50;;;22.10;99.90;;;;;;4994237;28;20212;-53
2022/09/07 09:34:19;;;;;;;9.90;8.00;;;22.30;99.90;;;;;;4994571;28;20198;-52
2022/09/07 09:36:54;;;;;;;10.37;7.30;;;22.20;1.00;;;;;;4988706;28;20208;-53
2022/09/07 09:39:26;;;;;;;9.57;6.43;;;22.10;1.00;;;;;;4995461;28;20201;-53
2022/09/07 09:41:57;;;;;;;8.63;7.07;;;22.20;99.90;;;;;;4989252;28;20255;-55
2022/09/07 09:44:31;;;;;;;6.47;5.87;;;22.20;99.90;;;;;;4996659;28;20288;-53
2022/09/07 09:47:01;;;;;;;8.13;6.20;;;22.30;1.00;;;;;;4991507;28;20232;-52
2022/09/07 09:49:47;;;;;;;6.73;5.70;;;22.50;1.00;;;;;;4992636;28;20217;-53
2022/09/07 09:52:18;;;;;;;9.50;5.70;;;22.40;1.00;;;;;;4988543;28;20360;-53
2022/09/07 09:55:06;;;;;;;7.13;4.67;;;22.50;1.00;;;;;;4994770;28;20221;-53
2022/09/07 09:58:01;;;;;;;5.40;3.10;;;22.60;1.00;;;;;;4989340;28;20220;-53
2022/09/07 10:01:03;;;;;;;5.97;3.87;;;22.30;1.00;;;;;;4995539;28;20212;-53
2022/09/07 10:03:51;;;;;;;6.30;3.47;;;22.30;1.00;;;;;;4991671;28;20755;-53
2022/09/07 10:06:23;;;;;;;6.73;3.70;;;22.30;1.00;;;;;;4993565;28;20233;-54
2022/09/07 10:08:57;;;;;;;6.67;3.80;;;22.30;1.00;;;;;;4994847;28;20304;-54
2022/09/07 10:12:01;;;;;;;6.50;4.00;;;22.30;1.00;;;;;;4992738;28;20642;-53
2022/09/07 10:14:41;;;;;;;6.47;2.80;;;22.20;1.00;;;;;;4915920;29;20223;-52
2022/09/07 10:17:33;;;;;;;5.60;2.97;;;22.20;1.00;;;;;;4917750;29;20691;-53
2022/09/07 10:20:21;;;;;;;4.80;3.10;;;22.40;1.00;;;;;;4915893;29;20212;-53
2022/09/07 10:22:50;;;;;;;5.27;2.93;;;22.60;1.00;;;;;;4917848;29;20223;-53
2022/09/07 10:25:35;;;;;;;3.53;2.60;;;22.50;1.00;;;;;;4914990;29;20290;-53
2022/09/07 10:28:14;;;;;;;4.33;2.60;;;22.70;1.00;;;;;;4916643;29;20698;-53
2022/09/07 10:30:44;;;;;;;7.07;2.63;;;23.00;1.00;;;;;;4916872;29;20593;-53
2022/09/07 10:33:35;;;;;;;5.70;2.57;;;22.90;99.90;;;;;;4921601;29;20279;-53
2022/09/07 10:36:40;;;;;;;7.97;2.53;;;23.00;99.90;;;;;;4917791;29;20212;-53
2022/09/07 10:39:16;;;;;;;6.13;2.10;;;23.00;99.90;;;;;;4911726;29;20218;-53
2022/09/07 10:41:54;;;;;;;6.63;2.17;;;23.10;99.90;;;;;;4919810;29;20625;-52
2022/09/07 10:45:02;;;;;;;4.53;2.30;;;23.10;1.00;;;;;;4920492;29;20244;-53
2022/09/07 10:47:31;;;;;;;7.37;2.27;;;23.10;1.00;;;;;;4908374;28;20697;-53
2022/09/07 10:50:13;;;;;;;3.77;2.20;;;23.10;11.00;;;;;;4991600;28;20308;-53
2022/09/07 10:52:57;;;;;;;5.07;2.30;;;23.10;1.00;;;;;;4994817;28;20276;-53
2022/09/07 10:55:32;;;;;;;8.33;3.07;;;23.20;99.90;;;;;;4997097;28;20334;-53
2022/09/07 10:58:06;;;;;;;5.13;2.20;;;23.00;99.90;;;;;;4994465;28;20210;-53
2022/09/07 11:01:00;;;;;;;7.77;3.27;;;23.10;1.00;;;;;;4995679;28;20213;-53
2022/09/07 11:04:00;;;;;;;6.07;2.42;;;23.10;99.90;;;;;;4987623;28;20460;-56
2022/09/07 11:06:38;;;;;;;5.17;2.53;;;23.30;1.00;;;;;;4995559;28;20249;-55
2022/09/07 11:09:38;;;;;;;4.57;1.80;;;23.60;1.00;;;;;;4994147;28;20270;-55
2022/09/07 11:12:19;;;;;;;4.00;1.50;;;24.00;1.00;;;;;;4990185;28;20632;-55
2022/09/07 11:15:04;;;;;;;4.50;1.83;;;24.20;1.00;;;;;;4993191;28;22640;-55
2022/09/07 11:17:58;;;;;;;4.27;2.20;;;24.50;1.00;;;;;;4994257;28;20254;-55
2022/09/07 11:20:34;;;;;;;5.07;2.10;;;24.70;1.00;;;;;;4992739;28;20209;-55
2022/09/07 11:23:18;;;;;;;3.57;1.63;;;24.80;1.00;;;;;;4996345;28;20296;-55
2022/09/07 11:26:11;;;;;;;4.93;2.37;;;25.50;1.00;;;;;;4990714;28;20209;-54
2022/09/07 11:28:53;;;;;;;4.07;1.53;;;24.50;99.90;;;;;;4993860;28;20290;-55
2022/09/07 11:31:46;;;;;;;4.43;1.80;;;25.10;1.00;;;;;;4995252;28;20673;-55
2022/09/07 11:34:29;;;;;;;4.07;1.70;;;25.50;99.90;;;;;;4991188;28;20205;-55
2022/09/07 11:37:09;;;;;;;4.43;1.70;;;25.20;99.90;;;;;;4993898;28;20208;-55
2022/09/07 11:39:42;;;;;;;5.63;1.63;;;25.60;99.90;;;;;;4989473;28;20343;-55
2022/09/07 11:42:20;;;;;;;3.60;1.30;;;26.30;99.90;;;;;;4993876;28;20237;-54
2022/09/07 11:45:29;;;;;;;5.70;2.10;;;27.50;99.90;;;;;;4985153;28;20701;-53
2022/09/07 11:48:12;;;;;;;3.23;1.83;;;26.20;99.90;;;;;;4993166;28;20232;-53
2022/09/07 11:50:50;;;;;;;3.63;1.50;;;25.90;99.90;;;;;;4988233;28;20208;-54
2022/09/07 11:53:24;;;;;;;2.63;1.20;;;25.80;99.90;;;;;;4993626;28;20209;-54
2022/09/07 11:55:57;;;;;;;6.03;1.90;;;25.80;95.70;;;;;;4986526;28;20225;-55
2022/09/07 11:58:58;;;;;;;2.97;1.40;;;25.50;99.90;;;;;;4991741;28;20625;-55
2022/09/07 12:02:03;;;;;;;3.17;1.27;;;25.90;99.90;;;;;;4987924;28;20202;-55
2022/09/07 12:05:00;;;;;;;5.20;1.80;;;25.80;69.70;;;;;;4987659;28;20206;-54
2022/09/07 12:07:58;;;;;;;2.83;1.30;;;25.60;99.90;;;;;;4991999;28;20222;-54
2022/09/07 12:10:34;;;;;;;4.47;1.37;;;25.70;99.90;;;;;;4982575;28;20212;-54
2022/09/07 12:13:22;;;;;;;4.33;1.53;;;25.50;99.90;;;;;;4989470;28;20247;-53
2022/09/07 12:15:58;;;;;;;4.60;1.93;;;25.50;99.90;;;;;;4985167;28;20212;-55
2022/09/07 12:18:55;;;;;;;3.30;0.90;;;25.70;99.90;;;;;;4986274;28;20227;-54
2022/09/07 12:21:32;;;;;;;3.43;1.37;;;26.10;75.90;;;;;;4983790;28;20666;-54
2022/09/07 12:23:59;;;;;;;3.17;1.40;;;26.30;1.00;;;;;;4988249;28;20203;-53
2022/09/07 12:26:32;;;;;;;3.40;1.30;;;26.30;1.00;;;;;;4986174;28;20226;-54
2022/09/07 12:28:59;;;;;;;4.27;1.50;;;26.60;99.90;;;;;;4985344;28;20217;-54
2022/09/07 12:31:49;;;;;;;4.17;1.33;;;26.50;27.20;;;;;;4984674;28;20201;-54
2022/09/07 12:34:33;;;;;;;5.13;1.13;;;25.90;83.20;;;;;;4991671;28;20206;-54
2022/09/07 12:37:25;;;;;;;3.27;1.10;;;26.60;91.60;;;;;;4987971;28;20295;-53
2022/09/07 12:40:26;;;;;;;3.30;1.20;;;26.60;1.00;;;;;;4986806;28;20207;-53
2022/09/07 12:43:11;;;;;;;4.07;1.30;;;26.20;1.00;;;;;;4980082;28;20307;-55
2022/09/07 12:45:38;;;;;;;4.67;1.53;;;26.40;1.00;;;;;;4979939;28;20216;-54
2022/09/07 12:48:14;;;;;;;2.50;1.13;;;26.30;1.00;;;;;;4989515;28;20251;-55
2022/09/07 12:51:23;;;;;;;4.90;1.43;;;26.00;1.00;;;;;;4984636;28;20215;-58
2022/09/07 12:54:20;;;;;;;3.53;1.13;;;26.40;1.00;;;;;;4991360;28;20232;-55
2022/09/07 12:56:48;;;;;;;4.03;1.20;;;26.20;1.00;;;;;;4992357;28;20212;-55
2022/09/07 13:00:05;;;;;;;6.20;1.13;;;25.70;1.00;;;;;;4984891;28;20213;-53
2022/09/07 13:02:44;;;;;;;5.03;1.30;;;25.40;1.00;;;;;;4985509;28;20212;-54
2022/09/07 13:05:20;;;;;;;3.47;0.90;;;25.20;1.00;;;;;;4987424;28;20207;-54
2022/09/07 13:08:28;;;;;;;6.33;1.63;;;25.00;1.00;;;;;;4993106;28;20228;-53
2022/09/07 13:10:55;;;;;;;4.07;1.20;;;25.00;6.30;;;;;;4991562;28;20204;-53
2022/09/07 13:13:28;;;;;;;3.33;0.90;;;24.80;9.30;;;;;;4989022;28;20244;-53
2022/09/07 13:16:31;;;;;;;2.13;1.20;;;24.90;99.90;;;;;;4980554;28;20201;-54
2022/09/07 13:19:49;;;;;;;3.87;1.20;;;25.80;1.00;;;;;;4983365;28;20526;-54
2022/09/07 13:22:31;;;;;;;3.70;1.20;;;26.20;1.00;;;;;;4975127;28;20199;-54
2022/09/07 13:25:00;;;;;;;2.37;1.20;;;26.50;1.00;;;;;;4983935;28;20547;-54
2022/09/07 13:27:56;;;;;;;5.80;1.33;;;26.60;1.00;;;;;;4974698;28;20319;-54
2022/09/07 13:30:32;;;;;;;3.13;1.33;;;26.50;1.00;;;;;;4975864;28;20202;-53
2022/09/07 13:33:23;;;;;;;4.93;1.50;;;26.30;1.00;;;;;;4984651;28;20197;-55